createdAt,value
2017-07-05T00:00:12.269Z,19.47
2017-07-05T00:01:08.516Z,19.47
2017-07-05T00:02:04.767Z,19.45
2017-07-05T00:03:01.006Z,19.44
2017-07-05T00:03:57.270Z,19.43
2017-07-05T00:04:53.510Z,19.41
2017-07-05T00:05:49.746Z,19.40
2017-07-05T00:06:45.990Z,19.38
2017-07-05T00:07:42.244Z,19.38
2017-07-05T00:08:38.503Z,19.36
2017-07-05T00:09:34.758Z,19.35
2017-07-05T00:10:30.999Z,19.33
2017-07-05T00:11:27.282Z,19.32
2017-07-05T00:12:23.518Z,19.30
2017-07-05T00:13:19.774Z,19.29
2017-07-05T00:14:16.052Z,19.27
2017-07-05T00:15:12.298Z,19.26
2017-07-05T00:16:08.542Z,19.25
2017-07-05T00:17:04.788Z,19.23
2017-07-05T00:18:01.046Z,19.21
2017-07-05T00:18:57.287Z,19.20
2017-07-05T00:19:53.542Z,19.19
2017-07-05T00:20:49.786Z,19.17
2017-07-05T00:21:46.026Z,19.16
2017-07-05T00:22:42.262Z,19.15
2017-07-05T00:23:38.494Z,19.14
2017-07-05T00:24:34.759Z,19.13
2017-07-05T00:25:31.015Z,19.12
2017-07-05T00:26:27.267Z,19.10
2017-07-05T00:27:23.515Z,19.08
2017-07-05T00:28:19.768Z,19.09
2017-07-05T00:29:16.011Z,19.07
2017-07-05T00:30:12.262Z,19.06
2017-07-05T00:31:08.496Z,19.04
2017-07-05T00:32:04.743Z,19.04
2017-07-05T00:33:01.006Z,19.03
2017-07-05T00:33:57.246Z,19.01
2017-07-05T00:34:53.507Z,19.00
2017-07-05T00:35:49.759Z,18.99
2017-07-05T00:36:46.003Z,18.97
2017-07-05T00:37:42.267Z,18.96
2017-07-05T00:38:38.510Z,18.95
2017-07-05T00:39:34.751Z,18.92
2017-07-05T00:40:31.009Z,18.91
2017-07-05T00:41:27.251Z,18.90
2017-07-05T00:42:23.497Z,18.89
2017-07-05T00:43:19.747Z,18.87
2017-07-05T00:44:16.007Z,18.85
2017-07-05T00:45:12.300Z,18.83
2017-07-05T00:46:08.553Z,18.81
2017-07-05T00:47:04.803Z,18.80
2017-07-05T00:48:01.058Z,18.78
2017-07-05T00:48:57.311Z,18.76
2017-07-05T00:49:53.554Z,18.74
2017-07-05T00:50:49.814Z,18.73
2017-07-05T00:51:46.070Z,18.72
2017-07-05T00:52:42.312Z,18.69
2017-07-05T00:53:38.577Z,18.68
2017-07-05T00:54:34.823Z,18.66
2017-07-05T00:55:31.072Z,18.64
2017-07-05T00:56:27.327Z,18.63
2017-07-05T00:57:23.575Z,18.61
2017-07-05T00:58:19.846Z,18.61
2017-07-05T00:59:16.087Z,18.60
2017-07-05T01:00:12.331Z,18.59
2017-07-05T01:01:08.587Z,18.59
2017-07-05T01:02:04.842Z,18.58
2017-07-05T01:03:01.091Z,18.58
2017-07-05T01:03:57.338Z,18.56
2017-07-05T01:04:53.595Z,18.57
2017-07-05T01:05:49.843Z,18.56
2017-07-05T01:06:46.110Z,18.56
2017-07-05T01:07:42.359Z,18.54
2017-07-05T01:08:38.628Z,18.53
2017-07-05T01:09:34.889Z,18.53
2017-07-05T01:10:31.130Z,18.51
2017-07-05T01:11:27.363Z,18.49
2017-07-05T01:12:23.607Z,18.49
2017-07-05T01:13:19.847Z,18.46
2017-07-05T01:14:16.090Z,18.44
2017-07-05T01:15:12.326Z,18.42
2017-07-05T01:16:08.580Z,18.39
2017-07-05T01:17:04.815Z,18.38
2017-07-05T01:18:01.083Z,18.37
2017-07-05T01:18:57.346Z,18.36
2017-07-05T01:19:53.586Z,18.34
2017-07-05T01:20:49.830Z,18.32
2017-07-05T01:21:46.087Z,18.30
2017-07-05T01:22:42.342Z,18.29
2017-07-05T01:23:38.605Z,18.30
2017-07-05T01:24:34.839Z,18.26
2017-07-05T01:25:31.075Z,18.24
2017-07-05T01:26:27.314Z,18.23
2017-07-05T01:27:23.547Z,18.22
2017-07-05T01:28:19.790Z,18.20
2017-07-05T01:29:16.030Z,18.18
2017-07-05T01:30:12.271Z,18.18
2017-07-05T01:31:08.530Z,18.17
2017-07-05T01:32:04.763Z,18.15
2017-07-05T01:33:01.026Z,18.14
2017-07-05T01:33:57.287Z,18.13
2017-07-05T01:34:53.531Z,18.12
2017-07-05T01:35:49.767Z,18.10
2017-07-05T01:36:45.998Z,18.09
2017-07-05T01:37:42.243Z,18.08
2017-07-05T01:38:38.519Z,18.06
2017-07-05T01:39:34.774Z,18.06
2017-07-05T01:40:31.019Z,18.04
2017-07-05T01:41:27.262Z,18.02
2017-07-05T01:42:23.491Z,18.00
2017-07-05T01:43:19.726Z,18.00
2017-07-05T01:44:15.987Z,17.98
2017-07-05T01:45:12.218Z,17.98
2017-07-05T01:46:08.459Z,17.95
2017-07-05T01:47:04.702Z,17.94
2017-07-05T01:48:00.946Z,17.94
2017-07-05T01:48:57.194Z,17.92
2017-07-05T01:49:53.458Z,17.90
2017-07-05T01:50:49.701Z,17.89
2017-07-05T01:51:45.947Z,17.88
2017-07-05T01:52:42.187Z,17.87
2017-07-05T01:53:38.434Z,17.85
2017-07-05T01:54:34.699Z,17.84
2017-07-05T01:55:30.942Z,17.83
2017-07-05T01:56:27.192Z,17.82
2017-07-05T01:57:23.441Z,17.80
2017-07-05T01:58:19.680Z,17.79
2017-07-05T01:59:15.922Z,17.79
2017-07-05T02:00:12.189Z,17.77
2017-07-05T02:01:08.450Z,17.76
2017-07-05T02:02:04.687Z,17.74
2017-07-05T02:03:00.931Z,17.73
2017-07-05T02:03:57.184Z,17.70
2017-07-05T02:04:53.435Z,17.71
2017-07-05T02:05:49.691Z,17.68
2017-07-05T02:06:45.939Z,17.67
2017-07-05T02:07:42.183Z,17.66
2017-07-05T02:08:38.423Z,17.65
2017-07-05T02:09:34.667Z,17.63
2017-07-05T02:10:30.947Z,17.62
2017-07-05T02:11:27.198Z,17.62
2017-07-05T02:12:23.456Z,17.60
2017-07-05T02:13:19.695Z,17.58
2017-07-05T02:14:15.935Z,17.57
2017-07-05T02:15:12.190Z,17.56
2017-07-05T02:16:08.443Z,17.56
2017-07-05T02:17:04.691Z,17.53
2017-07-05T02:18:00.935Z,17.48
2017-07-05T02:18:57.189Z,17.41
2017-07-05T02:19:53.423Z,17.33
2017-07-05T02:20:49.667Z,17.27
2017-07-05T02:21:45.925Z,17.23
2017-07-05T02:22:42.176Z,17.17
2017-07-05T02:23:38.422Z,17.13
2017-07-05T02:24:34.663Z,17.09
2017-07-05T02:25:30.908Z,17.05
2017-07-05T02:26:27.171Z,17.01
2017-07-05T02:27:23.414Z,16.96
2017-07-05T02:28:19.652Z,16.93
2017-07-05T02:29:15.894Z,16.90
2017-07-05T02:30:12.142Z,16.88
2017-07-05T02:31:08.386Z,16.85
2017-07-05T02:32:04.666Z,16.83
2017-07-05T02:33:00.910Z,16.80
2017-07-05T02:33:57.146Z,16.78
2017-07-05T02:34:53.410Z,16.76
2017-07-05T02:35:49.674Z,16.73
2017-07-05T02:36:45.930Z,16.72
2017-07-05T02:37:42.186Z,16.70
2017-07-05T02:38:38.431Z,16.67
2017-07-05T02:39:34.675Z,16.63
2017-07-05T02:40:30.931Z,16.62
2017-07-05T02:41:27.177Z,16.61
2017-07-05T02:42:23.427Z,16.59
2017-07-05T02:43:19.684Z,16.58
2017-07-05T02:44:15.922Z,16.56
2017-07-05T02:45:12.163Z,16.54
2017-07-05T02:46:08.402Z,16.53
2017-07-05T02:47:04.638Z,16.52
2017-07-05T02:48:00.898Z,16.49
2017-07-05T02:48:57.138Z,16.49
2017-07-05T02:49:53.390Z,16.47
2017-07-05T02:50:49.636Z,16.47
2017-07-05T02:51:45.896Z,16.45
2017-07-05T02:52:42.139Z,16.43
2017-07-05T02:53:38.390Z,16.41
2017-07-05T02:54:34.622Z,16.40
2017-07-05T02:55:30.852Z,16.40
2017-07-05T02:56:27.095Z,16.39
2017-07-05T02:57:23.331Z,16.37
2017-07-05T02:58:19.579Z,16.36
2017-07-05T02:59:15.814Z,16.35
2017-07-05T03:00:12.055Z,16.34
2017-07-05T03:01:08.286Z,16.32
2017-07-05T03:02:04.535Z,16.30
2017-07-05T03:03:00.772Z,16.29
2017-07-05T03:03:57.027Z,16.28
2017-07-05T03:04:53.270Z,16.27
2017-07-05T03:05:49.510Z,16.27
2017-07-05T03:06:45.754Z,16.25
2017-07-05T03:07:41.999Z,16.24
2017-07-05T03:08:38.254Z,16.23
2017-07-05T03:09:34.491Z,16.21
2017-07-05T03:10:30.723Z,16.20
2017-07-05T03:11:26.951Z,16.20
2017-07-05T03:12:23.191Z,16.18
2017-07-05T03:13:19.434Z,16.18
2017-07-05T03:14:15.687Z,16.16
2017-07-05T03:15:11.926Z,16.16
2017-07-05T03:16:08.164Z,16.16
2017-07-05T03:17:04.406Z,16.14
2017-07-05T03:18:00.630Z,16.13
2017-07-05T03:18:56.860Z,16.13
2017-07-05T03:19:53.112Z,16.11
2017-07-05T03:20:49.354Z,16.10
2017-07-05T03:21:45.578Z,16.10
2017-07-05T03:22:41.814Z,16.09
2017-07-05T03:23:38.046Z,16.09
2017-07-05T03:24:34.307Z,16.08
2017-07-05T03:25:30.556Z,16.07
2017-07-05T03:26:26.799Z,16.07
2017-07-05T03:27:23.047Z,16.07
2017-07-05T03:28:19.286Z,16.06
2017-07-05T03:29:15.526Z,16.05
2017-07-05T03:30:11.776Z,16.04
2017-07-05T03:31:08.018Z,16.02
2017-07-05T03:32:04.255Z,16.03
2017-07-05T03:33:00.510Z,16.01
2017-07-05T03:33:56.739Z,16.02
2017-07-05T03:34:52.994Z,16.01
2017-07-05T03:35:49.254Z,16.00
2017-07-05T03:36:45.490Z,15.99
2017-07-05T03:37:41.730Z,15.99
2017-07-05T03:38:37.959Z,15.98
2017-07-05T03:39:34.186Z,15.98
2017-07-05T03:40:30.437Z,15.98
2017-07-05T03:41:26.677Z,15.97
2017-07-05T03:42:22.910Z,15.98
2017-07-05T03:43:19.167Z,15.98
2017-07-05T03:44:15.398Z,15.97
2017-07-05T03:45:11.666Z,15.96
2017-07-05T03:46:07.906Z,15.96
2017-07-05T03:47:04.146Z,15.96
2017-07-05T03:48:00.386Z,15.94
2017-07-05T03:48:56.631Z,15.94
2017-07-05T03:49:52.863Z,15.95
2017-07-05T03:50:49.120Z,15.94
2017-07-05T03:51:45.363Z,15.94
2017-07-05T03:52:41.611Z,15.93
2017-07-05T03:53:37.859Z,15.93
2017-07-05T03:54:34.093Z,15.94
2017-07-05T03:55:30.330Z,15.94
2017-07-05T03:56:26.583Z,15.94
2017-07-05T03:57:22.868Z,15.94
2017-07-05T03:58:19.114Z,15.94
2017-07-05T03:59:15.338Z,15.93
2017-07-05T04:00:11.583Z,15.94
2017-07-05T04:01:07.843Z,15.93
2017-07-05T04:02:04.095Z,15.94
2017-07-05T04:03:00.342Z,15.93
2017-07-05T04:03:56.604Z,15.95
2017-07-05T04:04:52.859Z,15.94
2017-07-05T04:05:49.098Z,15.95
2017-07-05T04:06:45.355Z,15.95
2017-07-05T04:07:41.595Z,15.95
2017-07-05T04:08:37.826Z,15.96
2017-07-05T04:09:34.070Z,15.97
2017-07-05T04:10:30.311Z,15.98
2017-07-05T04:11:26.570Z,16.00
2017-07-05T04:12:22.794Z,16.00
2017-07-05T04:13:19.803Z,16.01
2017-07-05T04:14:16.046Z,16.04
2017-07-05T04:15:12.294Z,16.05
2017-07-05T04:16:08.535Z,16.06
2017-07-05T04:17:04.790Z,16.06
2017-07-05T04:18:01.031Z,16.08
2017-07-05T04:18:57.278Z,16.09
2017-07-05T04:19:53.511Z,16.11
2017-07-05T04:20:49.750Z,16.11
2017-07-05T04:21:46.003Z,16.12
2017-07-05T04:22:42.241Z,16.14
2017-07-05T04:23:38.486Z,16.15
2017-07-05T04:24:34.730Z,16.15
2017-07-05T04:25:30.966Z,16.16
2017-07-05T04:26:27.275Z,16.18
2017-07-05T04:27:23.578Z,16.18
2017-07-05T04:28:19.858Z,16.20
2017-07-05T04:29:16.143Z,16.21
2017-07-05T04:30:12.433Z,16.21
2017-07-05T04:31:08.662Z,16.24
2017-07-05T04:32:04.933Z,16.25
2017-07-05T04:33:01.173Z,16.27
2017-07-05T04:33:57.407Z,16.27
2017-07-05T04:34:53.646Z,16.29
2017-07-05T04:35:49.878Z,16.30
2017-07-05T04:36:46.114Z,16.33
2017-07-05T04:37:42.378Z,16.36
2017-07-05T04:38:38.611Z,16.37
2017-07-05T04:39:34.848Z,16.40
2017-07-05T04:40:31.095Z,16.42
2017-07-05T04:41:27.330Z,16.44
2017-07-05T04:42:23.569Z,16.46
2017-07-05T04:43:19.809Z,16.48
2017-07-05T04:44:16.047Z,16.49
2017-07-05T04:45:12.286Z,16.51
2017-07-05T04:46:08.526Z,16.54
2017-07-05T04:47:04.767Z,16.56
2017-07-05T04:48:01.019Z,16.58
2017-07-05T04:48:57.258Z,16.60
2017-07-05T04:49:53.499Z,16.63
2017-07-05T04:50:49.747Z,16.65
2017-07-05T04:51:45.984Z,16.69
2017-07-05T04:52:42.230Z,16.71
2017-07-05T04:53:38.478Z,16.73
2017-07-05T04:54:34.710Z,16.77
2017-07-05T04:55:30.950Z,16.79
2017-07-05T04:56:27.179Z,16.82
2017-07-05T04:57:23.411Z,16.84
2017-07-05T04:58:19.679Z,16.87
2017-07-05T04:59:15.911Z,16.89
2017-07-05T05:00:12.153Z,16.91
2017-07-05T05:01:08.398Z,16.94
2017-07-05T05:02:04.634Z,16.97
2017-07-05T05:03:00.877Z,16.98
2017-07-05T05:03:57.127Z,17.01
2017-07-05T05:04:53.370Z,17.03
2017-07-05T05:05:49.607Z,17.05
2017-07-05T05:06:45.845Z,17.08
2017-07-05T05:07:42.078Z,17.09
2017-07-05T05:08:38.343Z,17.10
2017-07-05T05:09:34.633Z,17.13
2017-07-05T05:10:30.882Z,17.14
2017-07-05T05:11:27.125Z,17.15
2017-07-05T05:12:23.362Z,17.15
2017-07-05T05:13:19.611Z,17.17
2017-07-05T05:14:15.879Z,17.20
2017-07-05T05:15:12.130Z,17.21
2017-07-05T05:16:08.367Z,17.22
2017-07-05T05:17:04.608Z,17.23
2017-07-05T05:18:00.846Z,17.24
2017-07-05T05:18:57.069Z,17.24
2017-07-05T05:19:53.322Z,17.25
2017-07-05T05:20:49.558Z,17.27
2017-07-05T05:21:45.799Z,17.28
2017-07-05T05:22:42.034Z,17.28
2017-07-05T05:23:38.259Z,17.29
2017-07-05T05:24:34.511Z,17.30
2017-07-05T05:25:30.743Z,17.31
2017-07-05T05:26:26.987Z,17.33
2017-07-05T05:27:23.226Z,17.34
2017-07-05T05:28:19.465Z,17.34
2017-07-05T05:29:15.707Z,17.36
2017-07-05T05:30:11.959Z,17.38
2017-07-05T05:31:08.202Z,17.39
2017-07-05T05:32:04.444Z,17.40
2017-07-05T05:33:00.714Z,17.41
2017-07-05T05:33:56.946Z,17.42
2017-07-05T05:34:53.210Z,17.44
2017-07-05T05:35:49.442Z,17.46
2017-07-05T05:36:45.690Z,17.47
2017-07-05T05:37:41.939Z,17.47
2017-07-05T05:38:38.175Z,17.47
2017-07-05T05:39:34.418Z,17.50
2017-07-05T05:40:30.675Z,17.50
2017-07-05T05:41:26.907Z,17.51
2017-07-05T05:42:23.163Z,17.54
2017-07-05T05:43:19.397Z,17.55
2017-07-05T05:44:15.635Z,17.56
2017-07-05T05:45:11.878Z,17.57
2017-07-05T05:46:08.130Z,17.57
2017-07-05T05:47:04.362Z,17.59
2017-07-05T05:48:00.595Z,17.59
2017-07-05T05:48:56.831Z,17.62
2017-07-05T05:49:53.068Z,17.64
2017-07-05T05:50:49.319Z,17.64
2017-07-05T05:51:45.579Z,17.66
2017-07-05T05:52:41.844Z,17.67
2017-07-05T05:53:38.086Z,17.69
2017-07-05T05:54:34.318Z,17.70
2017-07-05T05:55:30.580Z,17.72
2017-07-05T05:56:26.831Z,17.77
2017-07-05T05:57:23.095Z,17.79
2017-07-05T05:58:19.342Z,17.80
2017-07-05T05:59:15.582Z,17.84
2017-07-05T06:00:11.818Z,17.86
2017-07-05T06:01:08.095Z,17.88
2017-07-05T06:02:04.355Z,17.91
2017-07-05T06:03:00.605Z,17.93
2017-07-05T06:03:56.831Z,17.95
2017-07-05T06:04:53.080Z,17.98
2017-07-05T06:05:49.323Z,18.01
2017-07-05T06:06:45.558Z,18.03
2017-07-05T06:07:41.810Z,18.06
2017-07-05T06:08:38.055Z,18.07
2017-07-05T06:09:34.296Z,18.11
2017-07-05T06:10:30.535Z,18.13
2017-07-05T06:11:26.782Z,18.18
2017-07-05T06:12:23.096Z,18.19
2017-07-05T06:13:19.606Z,18.22
2017-07-05T06:14:15.855Z,18.24
2017-07-05T06:15:12.095Z,18.28
2017-07-05T06:16:08.335Z,18.30
2017-07-05T06:17:04.612Z,18.33
2017-07-05T06:18:00.870Z,18.35
2017-07-05T06:18:57.099Z,18.38
2017-07-05T06:19:53.342Z,18.40
2017-07-05T06:20:49.582Z,18.41
2017-07-05T06:21:45.819Z,18.43
2017-07-05T06:22:42.058Z,18.45
2017-07-05T06:23:38.286Z,18.49
2017-07-05T06:24:34.530Z,18.51
2017-07-05T06:25:30.770Z,18.54
2017-07-05T06:26:27.011Z,18.56
2017-07-05T06:27:23.251Z,18.58
2017-07-05T06:28:19.490Z,18.62
2017-07-05T06:29:15.721Z,18.64
2017-07-05T06:30:11.946Z,18.65
2017-07-05T06:31:08.187Z,18.68
2017-07-05T06:32:04.431Z,18.70
2017-07-05T06:33:00.719Z,18.72
2017-07-05T06:33:56.958Z,18.74
2017-07-05T06:34:53.234Z,18.78
2017-07-05T06:35:49.477Z,18.77
2017-07-05T06:36:45.718Z,18.80
2017-07-05T06:37:41.975Z,18.84
2017-07-05T06:38:38.232Z,18.86
2017-07-05T06:39:34.471Z,18.88
2017-07-05T06:40:30.710Z,18.89
2017-07-05T06:41:26.945Z,18.93
2017-07-05T06:42:23.200Z,18.97
2017-07-05T06:43:19.442Z,19.00
2017-07-05T06:44:15.674Z,19.04
2017-07-05T06:45:11.907Z,19.08
2017-07-05T06:46:08.152Z,19.12
2017-07-05T06:47:04.397Z,19.14
2017-07-05T06:48:00.638Z,19.17
2017-07-05T06:48:56.910Z,19.21
2017-07-05T06:49:53.154Z,19.25
2017-07-05T06:50:49.402Z,19.28
2017-07-05T06:51:45.645Z,19.32
2017-07-05T06:52:41.886Z,19.36
2017-07-05T06:53:38.147Z,19.41
2017-07-05T06:54:34.391Z,19.44
2017-07-05T06:55:30.646Z,19.49
2017-07-05T06:56:26.903Z,19.53
2017-07-05T06:57:23.146Z,19.58
2017-07-05T06:58:19.394Z,19.62
2017-07-05T06:59:15.653Z,19.67
2017-07-05T07:00:11.907Z,19.71
2017-07-05T07:01:08.150Z,19.73
2017-07-05T07:02:04.386Z,19.76
2017-07-05T07:03:00.630Z,19.78
2017-07-05T07:03:56.877Z,19.82
2017-07-05T07:04:53.147Z,19.83
2017-07-05T07:05:49.383Z,19.85
2017-07-05T07:06:45.638Z,19.87
2017-07-05T07:07:41.887Z,19.90
2017-07-05T07:08:38.138Z,19.93
2017-07-05T07:09:34.383Z,19.95
2017-07-05T07:10:30.614Z,19.98
2017-07-05T07:11:26.851Z,20.01
2017-07-05T07:12:23.090Z,20.03
2017-07-05T07:13:19.348Z,20.03
2017-07-05T07:14:15.606Z,20.06
2017-07-05T07:15:11.868Z,20.08
2017-07-05T07:16:08.098Z,20.11
2017-07-05T07:17:04.342Z,20.13
2017-07-05T07:18:00.597Z,20.15
2017-07-05T07:18:56.843Z,20.19
2017-07-05T07:19:53.127Z,20.22
2017-07-05T07:20:49.419Z,20.27
2017-07-05T07:21:45.666Z,20.32
2017-07-05T07:22:41.909Z,20.36
2017-07-05T07:23:38.150Z,20.40
2017-07-05T07:24:34.396Z,20.42
2017-07-05T07:25:30.655Z,20.46
2017-07-05T07:26:26.956Z,20.50
2017-07-05T07:27:23.200Z,20.54
2017-07-05T07:28:19.451Z,20.58
2017-07-05T07:29:15.707Z,20.63
2017-07-05T07:30:11.963Z,20.68
2017-07-05T07:31:08.239Z,20.72
2017-07-05T07:32:04.466Z,20.75
2017-07-05T07:33:00.716Z,20.79
2017-07-05T07:33:56.972Z,20.82
2017-07-05T07:34:53.221Z,20.86
2017-07-05T07:35:49.483Z,20.88
2017-07-05T07:36:45.727Z,20.92
2017-07-05T07:37:41.971Z,20.96
2017-07-05T07:38:38.229Z,20.97
2017-07-05T07:39:34.475Z,20.99
2017-07-05T07:40:30.723Z,21.02
2017-07-05T07:41:26.986Z,21.03
2017-07-05T07:42:23.237Z,21.06
2017-07-05T07:43:19.486Z,21.07
2017-07-05T07:44:15.732Z,21.09
2017-07-05T07:45:11.991Z,21.13
2017-07-05T07:46:08.259Z,21.16
2017-07-05T07:47:04.503Z,21.19
2017-07-05T07:48:00.747Z,21.23
2017-07-05T07:48:57.014Z,21.27
2017-07-05T07:49:53.254Z,21.30
2017-07-05T07:50:49.499Z,21.33
2017-07-05T07:51:45.778Z,21.36
2017-07-05T07:52:42.014Z,21.39
2017-07-05T07:53:38.264Z,21.42
2017-07-05T07:54:34.502Z,21.45
2017-07-05T07:55:30.742Z,21.48
2017-07-05T07:56:27.002Z,21.50
2017-07-05T07:57:23.268Z,21.52
2017-07-05T07:58:19.518Z,21.57
2017-07-05T07:59:15.757Z,21.59
2017-07-05T08:00:12.058Z,21.62
2017-07-05T08:01:08.314Z,21.64
2017-07-05T08:02:04.573Z,21.67
2017-07-05T08:03:00.818Z,21.68
2017-07-05T08:03:57.067Z,21.71
2017-07-05T08:04:53.310Z,21.74
2017-07-05T08:05:49.554Z,21.76
2017-07-05T08:06:45.816Z,21.79
2017-07-05T08:07:42.107Z,21.81
2017-07-05T08:08:38.360Z,21.83
2017-07-05T08:09:34.597Z,21.86
2017-07-05T08:10:30.827Z,21.88
2017-07-05T08:11:27.066Z,21.92
2017-07-05T08:12:23.311Z,21.94
2017-07-05T08:13:19.574Z,21.98
2017-07-05T08:14:15.823Z,22.02
2017-07-05T08:15:12.061Z,22.04
2017-07-05T08:16:08.302Z,22.09
2017-07-05T08:17:04.555Z,22.10
2017-07-05T08:18:00.823Z,22.12
2017-07-05T08:18:57.070Z,22.15
2017-07-05T08:19:54.211Z,22.17
2017-07-05T08:20:50.462Z,22.21
2017-07-05T08:21:46.715Z,22.24
2017-07-05T08:22:42.961Z,22.27
2017-07-05T08:23:39.222Z,22.31
2017-07-05T08:24:35.466Z,22.37
2017-07-05T08:25:31.708Z,22.42
2017-07-05T08:26:27.958Z,22.46
2017-07-05T08:27:24.214Z,22.50
2017-07-05T08:28:20.474Z,22.57
2017-07-05T08:29:16.714Z,22.61
2017-07-05T08:30:12.967Z,22.66
2017-07-05T08:31:09.224Z,22.72
2017-07-05T08:32:05.478Z,22.78
2017-07-05T08:33:01.723Z,22.81
2017-07-05T08:33:57.990Z,22.85
2017-07-05T08:34:54.243Z,22.89
2017-07-05T08:35:50.487Z,22.93
2017-07-05T08:36:46.726Z,22.97
2017-07-05T08:37:42.962Z,23.00
2017-07-05T08:38:39.215Z,23.04
2017-07-05T08:39:35.555Z,23.09
2017-07-05T08:40:31.808Z,23.10
2017-07-05T08:41:28.072Z,23.14
2017-07-05T08:42:24.315Z,23.16
2017-07-05T08:43:20.573Z,23.19
2017-07-05T08:44:16.811Z,23.22
2017-07-05T08:45:13.092Z,23.26
2017-07-05T08:46:09.343Z,23.29
2017-07-05T08:47:05.634Z,23.33
2017-07-05T08:48:01.874Z,23.36
2017-07-05T08:48:58.099Z,23.39
2017-07-05T08:49:54.366Z,23.42
2017-07-05T08:50:50.611Z,23.44
2017-07-05T08:51:46.871Z,23.46
2017-07-05T08:52:43.119Z,23.50
2017-07-05T08:53:39.363Z,23.53
2017-07-05T08:54:35.606Z,23.56
2017-07-05T08:55:31.884Z,23.60
2017-07-05T08:56:28.130Z,23.63
2017-07-05T08:57:24.370Z,23.66
2017-07-05T08:58:20.606Z,23.73
2017-07-05T08:59:16.855Z,23.77
2017-07-05T09:00:13.105Z,23.83
2017-07-05T09:01:09.363Z,23.88
2017-07-05T09:02:05.612Z,23.91
2017-07-05T09:03:01.875Z,23.95
2017-07-05T09:03:58.118Z,23.99
2017-07-05T09:04:54.355Z,24.03
2017-07-05T09:05:50.593Z,24.09
2017-07-05T09:06:46.847Z,24.15
2017-07-05T09:07:43.090Z,24.24
2017-07-05T09:08:39.332Z,24.32
2017-07-05T09:09:35.587Z,24.41
2017-07-05T09:10:31.847Z,24.52
2017-07-05T09:11:28.103Z,24.65
2017-07-05T09:12:24.371Z,24.77
2017-07-05T09:13:20.610Z,24.91
2017-07-05T09:14:16.860Z,25.04
2017-07-05T09:15:13.099Z,25.18
2017-07-05T09:16:09.338Z,25.31
2017-07-05T09:17:05.598Z,25.46
2017-07-05T09:18:01.842Z,25.60
2017-07-05T09:18:58.095Z,25.73
2017-07-05T09:19:54.335Z,25.88
2017-07-05T09:20:50.575Z,26.01
2017-07-05T09:21:46.836Z,26.17
2017-07-05T09:22:43.107Z,26.32
2017-07-05T09:23:39.354Z,26.47
2017-07-05T09:24:35.609Z,26.62
2017-07-05T09:25:31.859Z,26.77
2017-07-05T09:26:28.094Z,26.91
2017-07-05T09:27:24.342Z,27.08
2017-07-05T09:28:20.651Z,27.19
2017-07-05T09:29:16.896Z,27.34
2017-07-05T09:30:13.148Z,27.49
2017-07-05T09:31:09.383Z,27.62
2017-07-05T09:32:05.647Z,27.77
2017-07-05T09:33:01.927Z,27.90
2017-07-05T09:33:58.189Z,28.01
2017-07-05T09:34:54.451Z,28.14
2017-07-05T09:35:50.702Z,28.27
2017-07-05T09:36:46.947Z,28.41
2017-07-05T09:37:43.203Z,28.52
2017-07-05T09:38:39.465Z,28.61
2017-07-05T09:39:35.719Z,28.68
2017-07-05T09:40:31.976Z,28.77
2017-07-05T09:41:28.219Z,28.85
2017-07-05T09:42:24.615Z,28.96
2017-07-05T09:43:20.874Z,29.06
2017-07-05T09:44:17.122Z,29.14
2017-07-05T09:45:13.371Z,29.25
2017-07-05T09:46:09.611Z,29.36
2017-07-05T09:47:05.861Z,29.45
2017-07-05T09:48:02.099Z,29.55
2017-07-05T09:48:58.376Z,29.66
2017-07-05T09:49:54.627Z,29.74
2017-07-05T09:50:50.883Z,29.81
2017-07-05T09:51:47.127Z,29.89
2017-07-05T09:52:43.387Z,29.97
2017-07-05T09:53:39.679Z,30.05
2017-07-05T09:54:35.927Z,30.13
2017-07-05T09:55:32.166Z,30.21
2017-07-05T09:56:28.411Z,30.29
2017-07-05T09:57:24.658Z,30.36
2017-07-05T09:58:20.919Z,30.43
2017-07-05T09:59:17.190Z,30.48
2017-07-05T10:00:13.459Z,30.54
2017-07-05T10:01:09.730Z,30.58
2017-07-05T10:02:05.975Z,30.65
2017-07-05T10:03:02.219Z,30.69
2017-07-05T10:03:58.490Z,30.72
2017-07-05T10:04:54.746Z,30.76
2017-07-05T10:05:50.994Z,30.80
2017-07-05T10:06:47.251Z,30.82
2017-07-05T10:07:43.500Z,30.82
2017-07-05T10:08:39.783Z,30.86
2017-07-05T10:09:36.047Z,30.87
2017-07-05T10:10:32.311Z,30.90
2017-07-05T10:11:28.579Z,30.94
2017-07-05T10:12:24.850Z,30.97
2017-07-05T10:13:21.114Z,31.01
2017-07-05T10:14:17.367Z,31.06
2017-07-05T10:15:13.648Z,31.08
2017-07-05T10:16:09.904Z,31.09
2017-07-05T10:17:06.156Z,31.12
2017-07-05T10:18:02.408Z,31.11
2017-07-05T10:18:58.695Z,31.12
2017-07-05T10:19:54.967Z,31.13
2017-07-05T10:20:51.204Z,31.12
2017-07-05T10:21:47.442Z,31.11
2017-07-05T10:22:43.709Z,31.09
2017-07-05T10:23:39.958Z,31.08
2017-07-05T10:24:36.203Z,31.08
2017-07-05T10:25:32.490Z,31.09
2017-07-05T10:26:28.738Z,31.08
2017-07-05T10:27:24.996Z,31.07
2017-07-05T10:28:21.255Z,31.06
2017-07-05T10:29:17.495Z,31.04
2017-07-05T10:30:13.751Z,31.03
2017-07-05T10:31:10.030Z,31.02
2017-07-05T10:32:06.295Z,31.00
2017-07-05T10:33:02.566Z,30.98
2017-07-05T10:33:58.810Z,30.98
2017-07-05T10:34:55.060Z,30.98
2017-07-05T10:35:51.342Z,30.98
2017-07-05T10:36:47.600Z,30.95
2017-07-05T10:37:43.840Z,30.92
2017-07-05T10:38:40.083Z,30.91
2017-07-05T10:39:36.347Z,30.92
2017-07-05T10:40:32.602Z,30.93
2017-07-05T10:41:28.851Z,30.94
2017-07-05T10:42:25.201Z,30.95
2017-07-05T10:43:21.450Z,30.95
2017-07-05T10:44:17.695Z,30.94
2017-07-05T10:45:13.935Z,30.96
2017-07-05T10:46:10.178Z,30.96
2017-07-05T10:47:06.438Z,30.98
2017-07-05T10:48:02.682Z,30.98
2017-07-05T10:48:58.935Z,30.98
2017-07-05T10:49:55.188Z,30.97
2017-07-05T10:50:51.438Z,30.99
2017-07-05T10:51:47.711Z,31.01
2017-07-05T10:52:43.958Z,31.02
2017-07-05T10:53:40.198Z,31.02
2017-07-05T10:54:36.436Z,31.03
2017-07-05T10:55:32.700Z,31.05
2017-07-05T10:56:28.951Z,31.06
2017-07-05T10:57:25.244Z,31.10
2017-07-05T10:58:21.497Z,31.13
2017-07-05T10:59:17.742Z,31.15
2017-07-05T11:00:13.986Z,31.16
2017-07-05T11:01:10.231Z,31.16
2017-07-05T11:02:06.463Z,31.16
2017-07-05T11:03:02.723Z,31.16
2017-07-05T11:03:58.975Z,31.16
2017-07-05T11:04:55.214Z,31.16
2017-07-05T11:05:51.458Z,31.18
2017-07-05T11:06:47.703Z,31.19
2017-07-05T11:07:43.995Z,31.21
2017-07-05T11:08:40.239Z,31.23
2017-07-05T11:09:36.475Z,31.25
2017-07-05T11:10:32.711Z,31.28
2017-07-05T11:11:28.953Z,31.31
2017-07-05T11:12:25.190Z,31.36
2017-07-05T11:13:21.470Z,31.37
2017-07-05T11:14:17.707Z,31.40
2017-07-05T11:15:13.955Z,31.42
2017-07-05T11:16:10.194Z,31.40
2017-07-05T11:17:06.435Z,31.41
2017-07-05T11:18:02.694Z,31.43
2017-07-05T11:18:58.971Z,31.46
2017-07-05T11:19:55.211Z,31.48
2017-07-05T11:20:51.458Z,31.52
2017-07-05T11:21:47.703Z,31.55
2017-07-05T11:22:43.946Z,31.56
2017-07-05T11:23:40.205Z,31.59
2017-07-05T11:24:36.455Z,31.61
2017-07-05T11:25:32.698Z,31.63
2017-07-05T11:26:28.930Z,31.65
2017-07-05T11:27:25.168Z,31.68
2017-07-05T11:28:21.406Z,31.70
2017-07-05T11:29:17.683Z,31.71
2017-07-05T11:30:13.916Z,31.72
2017-07-05T11:31:10.162Z,31.72
2017-07-05T11:32:06.410Z,31.72
2017-07-05T11:33:02.648Z,31.72
2017-07-05T11:33:58.909Z,31.73
2017-07-05T11:34:55.162Z,31.72
2017-07-05T11:35:51.407Z,31.75
2017-07-05T11:36:47.662Z,31.76
2017-07-05T11:37:43.907Z,31.77
2017-07-05T11:38:40.156Z,31.80
2017-07-05T11:39:36.418Z,31.81
2017-07-05T11:40:32.663Z,31.83
2017-07-05T11:41:28.896Z,31.84
2017-07-05T11:42:25.134Z,31.86
2017-07-05T11:43:21.371Z,31.86
2017-07-05T11:44:17.618Z,31.86
2017-07-05T11:45:13.867Z,31.89
2017-07-05T11:46:10.106Z,31.91
2017-07-05T11:47:06.338Z,31.91
2017-07-05T11:48:02.598Z,31.91
2017-07-05T11:48:58.842Z,31.91
2017-07-05T11:49:55.119Z,31.91
2017-07-05T11:50:51.370Z,31.92
2017-07-05T11:51:47.619Z,31.93
2017-07-05T11:52:43.860Z,31.93
2017-07-05T11:53:40.098Z,31.95
2017-07-05T11:54:36.346Z,31.95
2017-07-05T11:55:32.609Z,31.95
2017-07-05T11:56:28.854Z,31.93
2017-07-05T11:57:25.094Z,31.93
2017-07-05T11:58:21.343Z,31.94
2017-07-05T11:59:17.585Z,31.96
2017-07-05T12:00:13.850Z,31.99
2017-07-05T12:01:10.131Z,32.05
2017-07-05T12:02:06.395Z,32.08
2017-07-05T12:03:02.664Z,32.13
2017-07-05T12:03:58.911Z,32.16